sensor_id;sensor_type;location;lat;lon;timestamp;pressure;altitude;pressure_sealevel;temperature;humidity
21203;BME280;10759;51.982;9.232;2023-03-15T00:02:05;99708.56;;;4.44;70.67
21203;BME280;10759;51.982;9.232;2023-03-15T00:04:33;99714.09;;;4.35;71.50
21203;BME280;10759;51.982;9.232;2023-03-15T00:07:04;99605.97;;;3.72;70.60
21203;BME280;10759;51.982;9.232;2023-03-15T00:09:32;99715.97;;;4.30;70.37
21203;BME280;10759;51.982;9.232;2023-03-15T00:11:59;99726.50;;;4.33;70.47
21203;BME280;10759;51.982;9.232;2023-03-15T00:14:28;99722.16;;;4.30;69.83
21203;BME280;10759;51.982;9.232;2023-03-15T00:16:57;99709.41;;;4.09;70.47
21203;BME280;10759;51.982;9.232;2023-03-15T00:19:25;99629.13;;;3.62;69.92
21203;BME280;10759;51.982;9.232;2023-03-15T00:21:52;99718.03;;;4.17;70.17
21203;BME280;10759;51.982;9.232;2023-03-15T00:24:22;99737.03;;;4.38;69.67
21203;BME280;10759;51.982;9.232;2023-03-15T00:26:50;99739.94;;;4.25;70.65
21203;BME280;10759;51.982;9.232;2023-03-15T00:29:18;99693.75;;;3.97;71.10
21203;BME280;10759;51.982;9.232;2023-03-15T00:31:46;99751.50;;;4.23;70.31
21203;BME280;10759;51.982;9.232;2023-03-15T00:34:15;99742.84;;;4.15;70.50
21203;BME280;10759;51.982;9.232;2023-03-15T00:36:44;99744.56;;;4.17;70.41
21203;BME280;10759;51.982;9.232;2023-03-15T00:39:12;99742.19;;;4.05;70.51
21203;BME280;10759;51.982;9.232;2023-03-15T00:41:42;99697.44;;;3.90;71.01
21203;BME280;10759;51.982;9.232;2023-03-15T00:44:11;99752.94;;;4.38;70.54
21203;BME280;10759;51.982;9.232;2023-03-15T00:46:39;99718.47;;;3.99;70.88
21203;BME280;10759;51.982;9.232;2023-03-15T00:49:07;99757.72;;;4.23;71.41
21203;BME280;10759;51.982;9.232;2023-03-15T00:51:35;99696.06;;;3.72;71.41
21203;BME280;10759;51.982;9.232;2023-03-15T00:54:03;99757.56;;;3.89;73.39
21203;BME280;10759;51.982;9.232;2023-03-15T00:56:31;99739.88;;;3.88;72.10
21203;BME280;10759;51.982;9.232;2023-03-15T00:59:01;99770.22;;;4.17;71.12
21203;BME280;10759;51.982;9.232;2023-03-15T01:01:29;99728.91;;;4.06;71.73
21203;BME280;10759;51.982;9.232;2023-03-15T01:03:57;99762.16;;;4.21;70.74
21203;BME280;10759;51.982;9.232;2023-03-15T01:06:27;99768.41;;;4.19;70.74
21203;BME280;10759;51.982;9.232;2023-03-15T01:08:57;99489.06;;;2.64;70.23
21203;BME280;10759;51.982;9.232;2023-03-15T01:11:27;99719.66;;;4.24;70.19
21203;BME280;10759;51.982;9.232;2023-03-15T01:13:56;99761.44;;;4.54;69.71
21203;BME280;10759;51.982;9.232;2023-03-15T01:16:26;99763.63;;;4.35;69.98
21203;BME280;10759;51.982;9.232;2023-03-15T01:18:54;99754.03;;;4.29;69.64
21203;BME280;10759;51.982;9.232;2023-03-15T01:21:23;99760.56;;;4.14;70.50
21203;BME280;10759;51.982;9.232;2023-03-15T01:23:52;99758.66;;;4.19;69.83
21203;BME280;10759;51.982;9.232;2023-03-15T01:26:20;99744.63;;;4.14;70.07
21203;BME280;10759;51.982;9.232;2023-03-15T01:28:49;99774.41;;;4.28;70.73
21203;BME280;10759;51.982;9.232;2023-03-15T01:31:20;99751.41;;;4.27;70.79
21203;BME280;10759;51.982;9.232;2023-03-15T01:33:50;99776.53;;;4.51;69.90
21203;BME280;10759;51.982;9.232;2023-03-15T01:36:19;99736.34;;;4.28;70.24
21203;BME280;10759;51.982;9.232;2023-03-15T01:38:47;99775.50;;;4.57;69.33
21203;BME280;10759;51.982;9.232;2023-03-15T01:41:19;99770.22;;;4.17;71.91
21203;BME280;10759;51.982;9.232;2023-03-15T01:43:49;99742.59;;;4.25;72.08
21203;BME280;10759;51.982;9.232;2023-03-15T01:46:26;99747.25;;;4.16;73.61
21203;BME280;10759;51.982;9.232;2023-03-15T01:49:22;99778.34;;;4.49;72.62
21203;BME280;10759;51.982;9.232;2023-03-15T01:51:53;99772.75;;;4.62;72.36
21203;BME280;10759;51.982;9.232;2023-03-15T01:54:29;99777.44;;;4.50;72.73
21203;BME280;10759;51.982;9.232;2023-03-15T01:57:03;99790.94;;;4.79;72.16
21203;BME280;10759;51.982;9.232;2023-03-15T01:59:35;99755.28;;;4.53;72.37
21203;BME280;10759;51.982;9.232;2023-03-15T02:02:06;99746.81;;;4.36;73.62
21203;BME280;10759;51.982;9.232;2023-03-15T02:04:40;99786.00;;;4.62;75.74
21203;BME280;10759;51.982;9.232;2023-03-15T02:07:16;99795.28;;;4.81;74.88
21203;BME280;10759;51.982;9.232;2023-03-15T02:09:50;99787.22;;;4.48;77.45
21203;BME280;10759;51.982;9.232;2023-03-15T02:12:20;99804.00;;;4.49;78.70
21203;BME280;10759;51.982;9.232;2023-03-15T02:14:49;99801.16;;;4.57;79.19
21203;BME280;10759;51.982;9.232;2023-03-15T02:17:24;99769.19;;;4.24;80.67
21203;BME280;10759;51.982;9.232;2023-03-15T02:20:01;99811.94;;;4.50;81.20
21203;BME280;10759;51.982;9.232;2023-03-15T02:22:39;99650.84;;;3.79;80.58
21203;BME280;10759;51.982;9.232;2023-03-15T02:25:17;99816.91;;;4.66;81.50
21203;BME280;10759;51.982;9.232;2023-03-15T02:27:49;99804.16;;;4.41;83.59
21203;BME280;10759;51.982;9.232;2023-03-15T02:30:18;99777.91;;;4.29;83.77
21203;BME280;10759;51.982;9.232;2023-03-15T02:32:47;99809.31;;;4.47;84.47
21203;BME280;10759;51.982;9.232;2023-03-15T02:35:22;99744.72;;;4.09;85.92
21203;BME280;10759;51.982;9.232;2023-03-15T02:37:51;99806.75;;;4.44;88.27
21203;BME280;10759;51.982;9.232;2023-03-15T02:40:21;99808.22;;;4.17;90.92
21203;BME280;10759;51.982;9.232;2023-03-15T02:42:53;99811.28;;;4.39;90.89
21203;BME280;10759;51.982;9.232;2023-03-15T02:45:24;99795.66;;;4.25;91.57
21203;BME280;10759;51.982;9.232;2023-03-15T02:47:53;99817.09;;;4.15;92.69
21203;BME280;10759;51.982;9.232;2023-03-15T02:50:21;99785.28;;;4.15;92.54
21203;BME280;10759;51.982;9.232;2023-03-15T02:52:49;99816.00;;;4.25;93.80
21203;BME280;10759;51.982;9.232;2023-03-15T02:55:18;99800.28;;;4.16;93.90
21203;BME280;10759;51.982;9.232;2023-03-15T02:57:47;99822.34;;;4.18;94.52
21203;BME280;10759;51.982;9.232;2023-03-15T03:00:17;99826.88;;;4.13;95.30
21203;BME280;10759;51.982;9.232;2023-03-15T03:02:47;99794.69;;;3.86;95.78
21203;BME280;10759;51.982;9.232;2023-03-15T03:05:15;99822.88;;;3.92;95.65
21203;BME280;10759;51.982;9.232;2023-03-15T03:07:43;99831.47;;;4.03;96.62
21203;BME280;10759;51.982;9.232;2023-03-15T03:10:14;99831.91;;;4.25;95.68
21203;BME280;10759;51.982;9.232;2023-03-15T03:12:48;99791.56;;;3.67;97.07
21203;BME280;10759;51.982;9.232;2023-03-15T03:15:26;99847.13;;;4.17;97.35
21203;BME280;10759;51.982;9.232;2023-03-15T03:17:54;99837.41;;;4.16;95.94
21203;BME280;10759;51.982;9.232;2023-03-15T03:20:22;99841.47;;;4.34;95.92
21203;BME280;10759;51.982;9.232;2023-03-15T03:22:51;99865.97;;;4.46;95.82
21203;BME280;10759;51.982;9.232;2023-03-15T03:25:21;99874.78;;;4.47;95.68
21203;BME280;10759;51.982;9.232;2023-03-15T03:27:52;99883.03;;;4.33;96.28
21203;BME280;10759;51.982;9.232;2023-03-15T03:30:26;99876.47;;;4.51;96.01
21203;BME280;10759;51.982;9.232;2023-03-15T03:32:54;99864.09;;;4.51;95.22
21203;BME280;10759;51.982;9.232;2023-03-15T03:35:22;99884.09;;;4.68;95.21
21203;BME280;10759;51.982;9.232;2023-03-15T03:37:50;99882.41;;;4.64;94.67
21203;BME280;10759;51.982;9.232;2023-03-15T03:40:29;99872.31;;;4.39;95.10
21203;BME280;10759;51.982;9.232;2023-03-15T03:42:57;99892.31;;;4.56;95.18
21203;BME280;10759;51.982;9.232;2023-03-15T03:45:26;99890.72;;;4.47;95.43
21203;BME280;10759;51.982;9.232;2023-03-15T03:47:57;99843.25;;;3.88;96.66
21203;BME280;10759;51.982;9.232;2023-03-15T03:50:25;99904.84;;;4.47;96.47
21203;BME280;10759;51.982;9.232;2023-03-15T03:52:53;99880.34;;;4.35;95.91
21203;BME280;10759;51.982;9.232;2023-03-15T03:55:25;99865.44;;;4.29;95.72
21203;BME280;10759;51.982;9.232;2023-03-15T03:57:53;99919.56;;;4.64;95.72
21203;BME280;10759;51.982;9.232;2023-03-15T04:00:37;99913.03;;;4.38;96.48
21203;BME280;10759;51.982;9.232;2023-03-15T04:03:07;99878.03;;;4.18;96.50
21203;BME280;10759;51.982;9.232;2023-03-15T04:05:37;99920.00;;;4.42;97.05
21203;BME280;10759;51.982;9.232;2023-03-15T04:08:05;99935.91;;;4.42;97.18
21203;BME280;10759;51.982;9.232;2023-03-15T04:10:37;99925.28;;;3.97;98.61
21203;BME280;10759;51.982;9.232;2023-03-15T04:13:05;99943.47;;;4.19;98.46
21203;BME280;10759;51.982;9.232;2023-03-15T04:15:33;99937.84;;;3.86;98.33
21203;BME280;10759;51.982;9.232;2023-03-15T04:18:03;99956.66;;;4.20;98.54
21203;BME280;10759;51.982;9.232;2023-03-15T04:20:37;99963.31;;;4.43;97.70
21203;BME280;10759;51.982;9.232;2023-03-15T04:23:05;99860.16;;;3.84;97.01
21203;BME280;10759;51.982;9.232;2023-03-15T04:25:53;99905.22;;;3.84;98.29
21203;BME280;10759;51.982;9.232;2023-03-15T04:28:37;99955.88;;;4.15;97.89
21203;BME280;10759;51.982;9.232;2023-03-15T04:31:23;99965.69;;;4.10;98.46
21203;BME280;10759;51.982;9.232;2023-03-15T04:34:12;99976.31;;;4.10;98.48
21203;BME280;10759;51.982;9.232;2023-03-15T04:36:59;99951.50;;;4.14;97.74
21203;BME280;10759;51.982;9.232;2023-03-15T04:39:53;99948.78;;;4.17;97.00
21203;BME280;10759;51.982;9.232;2023-03-15T04:42:33;99986.47;;;4.35;96.62
21203;BME280;10759;51.982;9.232;2023-03-15T04:45:12;99979.03;;;4.05;97.54
21203;BME280;10759;51.982;9.232;2023-03-15T04:47:59;99873.88;;;3.56;96.70
21203;BME280;10759;51.982;9.232;2023-03-15T04:50:37;99988.50;;;4.20;95.75
21203;BME280;10759;51.982;9.232;2023-03-15T04:53:36;99980.75;;;4.08;94.76
21203;BME280;10759;51.982;9.232;2023-03-15T04:56:39;99973.66;;;4.08;95.19
21203;BME280;10759;51.982;9.232;2023-03-15T04:59:20;99973.56;;;4.15;94.75
21203;BME280;10759;51.982;9.232;2023-03-15T05:02:10;100000.75;;;4.27;93.82
21203;BME280;10759;51.982;9.232;2023-03-15T05:04:56;100010.91;;;4.02;95.23
21203;BME280;10759;51.982;9.232;2023-03-15T05:07:39;100004.47;;;4.16;94.50
21203;BME280;10759;51.982;9.232;2023-03-15T05:10:31;100002.41;;;4.33;93.80
21203;BME280;10759;51.982;9.232;2023-03-15T05:13:13;100007.78;;;4.30;93.24
21203;BME280;10759;51.982;9.232;2023-03-15T05:16:05;100013.00;;;4.35;93.55
21203;BME280;10759;51.982;9.232;2023-03-15T05:18:35;100013.44;;;4.10;93.47
21203;BME280;10759;51.982;9.232;2023-03-15T05:21:26;100022.91;;;4.25;93.31
21203;BME280;10759;51.982;9.232;2023-03-15T05:24:14;100018.53;;;4.21;92.55
21203;BME280;10759;51.982;9.232;2023-03-15T05:27:11;100022.97;;;4.22;92.31
21203;BME280;10759;51.982;9.232;2023-03-15T05:30:08;100028.13;;;4.28;92.59
21203;BME280;10759;51.982;9.232;2023-03-15T05:33:02;100041.31;;;4.34;92.75
21203;BME280;10759;51.982;9.232;2023-03-15T05:35:42;100037.97;;;4.23;93.14
21203;BME280;10759;51.982;9.232;2023-03-15T05:38:37;100042.50;;;4.16;92.63
21203;BME280;10759;51.982;9.232;2023-03-15T05:41:17;100049.50;;;4.20;92.77
21203;BME280;10759;51.982;9.232;2023-03-15T05:43:59;100047.69;;;4.24;92.51
21203;BME280;10759;51.982;9.232;2023-03-15T05:46:55;100049.38;;;4.28;92.82
21203;BME280;10759;51.982;9.232;2023-03-15T05:49:36;100015.16;;;4.14;93.05
21203;BME280;10759;51.982;9.232;2023-03-15T05:52:24;100036.09;;;4.29;92.91
21203;BME280;10759;51.982;9.232;2023-03-15T05:55:08;100012.56;;;4.09;92.77
21203;BME280;10759;51.982;9.232;2023-03-15T05:57:55;100076.47;;;4.45;92.30
21203;BME280;10759;51.982;9.232;2023-03-15T06:00:41;100080.03;;;4.46;91.88
21203;BME280;10759;51.982;9.232;2023-03-15T06:03:22;100090.72;;;4.40;92.36
21203;BME280;10759;51.982;9.232;2023-03-15T06:05:56;100038.84;;;4.23;91.42
21203;BME280;10759;51.982;9.232;2023-03-15T06:08:34;100099.97;;;4.67;91.29
21203;BME280;10759;51.982;9.232;2023-03-15T06:11:02;100094.31;;;4.37;92.09
21203;BME280;10759;51.982;9.232;2023-03-15T06:13:32;100104.06;;;4.37;93.95
21203;BME280;10759;51.982;9.232;2023-03-15T06:16:05;100103.31;;;4.28;92.68
21203;BME280;10759;51.982;9.232;2023-03-15T06:18:38;100111.97;;;4.40;92.22
21203;BME280;10759;51.982;9.232;2023-03-15T06:21:07;100113.66;;;4.44;91.88
21203;BME280;10759;51.982;9.232;2023-03-15T06:23:36;100090.78;;;4.38;91.92
21203;BME280;10759;51.982;9.232;2023-03-15T06:26:04;100062.00;;;4.14;92.51
21203;BME280;10759;51.982;9.232;2023-03-15T06:28:34;100137.06;;;4.70;92.25
21203;BME280;10759;51.982;9.232;2023-03-15T06:31:06;100114.47;;;4.47;91.85
21203;BME280;10759;51.982;9.232;2023-03-15T06:33:40;100152.78;;;4.84;91.49
21203;BME280;10759;51.982;9.232;2023-03-15T06:36:10;100150.41;;;4.67;92.25
21203;BME280;10759;51.982;9.232;2023-03-15T06:38:39;100154.84;;;4.68;93.40
21203;BME280;10759;51.982;9.232;2023-03-15T06:41:07;100162.88;;;4.62;92.62
21203;BME280;10759;51.982;9.232;2023-03-15T06:43:37;100100.75;;;4.21;92.81
21203;BME280;10759;51.982;9.232;2023-03-15T06:46:05;100168.84;;;4.76;92.46
21203;BME280;10759;51.982;9.232;2023-03-15T06:48:33;100170.38;;;4.89;91.28
21203;BME280;10759;51.982;9.232;2023-03-15T06:51:02;100163.72;;;4.65;91.45
21203;BME280;10759;51.982;9.232;2023-03-15T06:53:31;100169.56;;;4.84;91.17
21203;BME280;10759;51.982;9.232;2023-03-15T06:56:00;100177.41;;;4.92;90.32
21203;BME280;10759;51.982;9.232;2023-03-15T06:58:28;100145.88;;;4.73;89.97
21203;BME280;10759;51.982;9.232;2023-03-15T07:00:57;100171.69;;;4.65;90.95
21203;BME280;10759;51.982;9.232;2023-03-15T07:03:25;100190.94;;;4.77;91.40
21203;BME280;10759;51.982;9.232;2023-03-15T07:05:53;100191.00;;;4.75;91.66
21203;BME280;10759;51.982;9.232;2023-03-15T07:08:22;100185.28;;;4.97;90.92
21203;BME280;10759;51.982;9.232;2023-03-15T07:10:51;100050.47;;;4.16;90.24
21203;BME280;10759;51.982;9.232;2023-03-15T07:13:19;100193.22;;;5.00;91.21
21203;BME280;10759;51.982;9.232;2023-03-15T07:15:50;100194.84;;;5.07;90.70
21203;BME280;10759;51.982;9.232;2023-03-15T07:18:20;100191.16;;;5.14;90.40
21203;BME280;10759;51.982;9.232;2023-03-15T07:20:54;100199.56;;;4.91;90.57
21203;BME280;10759;51.982;9.232;2023-03-15T07:23:22;100153.34;;;4.51;91.28
21203;BME280;10759;51.982;9.232;2023-03-15T07:25:50;100145.19;;;4.62;90.88
21203;BME280;10759;51.982;9.232;2023-03-15T07:28:22;100191.72;;;4.83;91.41
21203;BME280;10759;51.982;9.232;2023-03-15T07:30:55;100217.28;;;4.90;91.39
21203;BME280;10759;51.982;9.232;2023-03-15T07:33:25;100218.72;;;5.07;91.56
21203;BME280;10759;51.982;9.232;2023-03-15T07:35:54;100220.31;;;5.19;90.40
21203;BME280;10759;51.982;9.232;2023-03-15T07:38:24;100195.38;;;4.76;92.02
21203;BME280;10759;51.982;9.232;2023-03-15T07:40:52;100234.75;;;5.04;91.09
21203;BME280;10759;51.982;9.232;2023-03-15T07:43:20;100230.13;;;5.15;90.39
21203;BME280;10759;51.982;9.232;2023-03-15T07:45:55;100239.09;;;5.08;90.48
21203;BME280;10759;51.982;9.232;2023-03-15T07:48:24;100192.59;;;4.85;89.98
21203;BME280;10759;51.982;9.232;2023-03-15T07:50:55;100241.19;;;4.90;90.57
21203;BME280;10759;51.982;9.232;2023-03-15T07:53:23;100247.88;;;5.11;90.55
21203;BME280;10759;51.982;9.232;2023-03-15T07:55:51;100233.00;;;5.01;90.06
21203;BME280;10759;51.982;9.232;2023-03-15T07:58:19;100262.00;;;5.13;89.55
21203;BME280;10759;51.982;9.232;2023-03-15T08:00:47;100165.66;;;4.56;88.86
21203;BME280;10759;51.982;9.232;2023-03-15T08:03:15;100203.34;;;4.76;89.21
21203;BME280;10759;51.982;9.232;2023-03-15T08:05:45;100261.72;;;5.30;88.30
21203;BME280;10759;51.982;9.232;2023-03-15T08:08:13;100265.84;;;5.47;87.48
21203;BME280;10759;51.982;9.232;2023-03-15T08:10:41;100269.41;;;5.46;86.37
21203;BME280;10759;51.982;9.232;2023-03-15T08:13:10;100268.88;;;5.73;86.48
21203;BME280;10759;51.982;9.232;2023-03-15T08:15:38;100249.44;;;5.71;85.27
21203;BME280;10759;51.982;9.232;2023-03-15T08:18:06;100276.66;;;5.82;83.57
21203;BME280;10759;51.982;9.232;2023-03-15T08:20:34;100289.25;;;5.74;84.57
21203;BME280;10759;51.982;9.232;2023-03-15T08:23:03;100282.81;;;5.86;83.98
21203;BME280;10759;51.982;9.232;2023-03-15T08:25:31;100290.72;;;5.91;84.98
21203;BME280;10759;51.982;9.232;2023-03-15T08:27:59;100268.63;;;5.41;84.55
21203;BME280;10759;51.982;9.232;2023-03-15T08:30:27;100302.09;;;5.51;84.58
21203;BME280;10759;51.982;9.232;2023-03-15T08:32:55;100305.88;;;5.39;85.16
21203;BME280;10759;51.982;9.232;2023-03-15T08:35:23;100311.84;;;5.52;85.74
21203;BME280;10759;51.982;9.232;2023-03-15T08:37:51;100316.00;;;5.65;84.90
21203;BME280;10759;51.982;9.232;2023-03-15T08:40:20;100303.00;;;5.48;84.36
21203;BME280;10759;51.982;9.232;2023-03-15T08:42:51;100324.34;;;5.44;84.46
21203;BME280;10759;51.982;9.232;2023-03-15T08:45:20;100296.13;;;5.38;84.27
21203;BME280;10759;51.982;9.232;2023-03-15T08:47:49;100331.84;;;5.71;83.73
21203;BME280;10759;51.982;9.232;2023-03-15T08:50:20;100317.09;;;5.55;80.49
21203;BME280;10759;51.982;9.232;2023-03-15T08:52:49;100347.63;;;5.80;79.99
21203;BME280;10759;51.982;9.232;2023-03-15T08:55:17;100344.50;;;6.05;78.87
21203;BME280;10759;51.982;9.232;2023-03-15T08:57:46;100351.00;;;6.35;80.45
21203;BME280;10759;51.982;9.232;2023-03-15T09:00:15;100307.72;;;5.80;79.35
21203;BME280;10759;51.982;9.232;2023-03-15T09:02:46;100336.28;;;6.17;77.91
21203;BME280;10759;51.982;9.232;2023-03-15T09:05:15;100362.16;;;6.11;80.13
21203;BME280;10759;51.982;9.232;2023-03-15T09:07:44;100356.88;;;6.08;80.65
21203;BME280;10759;51.982;9.232;2023-03-15T09:10:14;100302.47;;;5.77;79.72
21203;BME280;10759;51.982;9.232;2023-03-15T09:12:44;100364.00;;;6.49;79.12
21203;BME280;10759;51.982;9.232;2023-03-15T09:15:14;100371.19;;;6.86;77.69
21203;BME280;10759;51.982;9.232;2023-03-15T09:17:42;100365.84;;;6.86;75.00
21203;BME280;10759;51.982;9.232;2023-03-15T09:20:12;100373.75;;;6.91;75.04
21203;BME280;10759;51.982;9.232;2023-03-15T09:22:49;100363.78;;;6.99;74.00
21203;BME280;10759;51.982;9.232;2023-03-15T09:25:18;100375.91;;;6.75;70.84
21203;BME280;10759;51.982;9.232;2023-03-15T09:27:47;100355.97;;;6.91;72.86
21203;BME280;10759;51.982;9.232;2023-03-15T09:30:16;100342.00;;;7.19;72.55
21203;BME280;10759;51.982;9.232;2023-03-15T09:32:44;100387.84;;;7.69;73.37
21203;BME280;10759;51.982;9.232;2023-03-15T09:35:14;100389.97;;;7.55;76.00
21203;BME280;10759;51.982;9.232;2023-03-15T09:37:42;100384.00;;;7.45;73.69
21203;BME280;10759;51.982;9.232;2023-03-15T09:40:15;100393.78;;;7.46;74.08
21203;BME280;10759;51.982;9.232;2023-03-15T09:43:03;100301.16;;;6.82;73.30
21203;BME280;10759;51.982;9.232;2023-03-15T09:45:54;100233.34;;;6.58;71.93
21203;BME280;10759;51.982;9.232;2023-03-15T09:48:30;100403.81;;;7.70;71.75
21203;BME280;10759;51.982;9.232;2023-03-15T09:51:01;100404.06;;;7.60;69.41
21203;BME280;10759;51.982;9.232;2023-03-15T09:53:38;100416.66;;;7.55;66.05
21203;BME280;10759;51.982;9.232;2023-03-15T09:56:20;100407.03;;;7.83;63.16
21203;BME280;10759;51.982;9.232;2023-03-15T09:58:51;100409.97;;;7.72;65.91
21203;BME280;10759;51.982;9.232;2023-03-15T10:01:26;100386.69;;;7.79;64.23
21203;BME280;10759;51.982;9.232;2023-03-15T10:03:55;100411.41;;;7.86;65.18
21203;BME280;10759;51.982;9.232;2023-03-15T10:06:28;100410.22;;;7.98;59.41
21203;BME280;10759;51.982;9.232;2023-03-15T10:09:09;100413.16;;;7.87;60.15
21203;BME280;10759;51.982;9.232;2023-03-15T10:11:46;100416.34;;;7.67;60.66
21203;BME280;10759;51.982;9.232;2023-03-15T10:14:25;100403.84;;;7.69;63.69
21203;BME280;10759;51.982;9.232;2023-03-15T10:17:02;100416.03;;;7.79;59.10
21203;BME280;10759;51.982;9.232;2023-03-15T10:19:39;100417.81;;;8.13;57.63
21203;BME280;10759;51.982;9.232;2023-03-15T10:22:17;100419.50;;;8.48;60.00
21203;BME280;10759;51.982;9.232;2023-03-15T10:24:49;100389.69;;;8.32;59.87
21203;BME280;10759;51.982;9.232;2023-03-15T10:27:20;100421.03;;;7.91;58.37
21203;BME280;10759;51.982;9.232;2023-03-15T10:29:50;100421.91;;;7.58;57.70
21203;BME280;10759;51.982;9.232;2023-03-15T10:32:24;100395.28;;;7.56;59.89
21203;BME280;10759;51.982;9.232;2023-03-15T10:34:55;100316.03;;;7.27;59.42
21203;BME280;10759;51.982;9.232;2023-03-15T10:37:24;100420.91;;;7.98;58.37
21203;BME280;10759;51.982;9.232;2023-03-15T10:39:54;100426.56;;;7.85;58.79
21203;BME280;10759;51.982;9.232;2023-03-15T10:42:25;100423.72;;;8.24;60.84
21203;BME280;10759;51.982;9.232;2023-03-15T10:44:53;100420.16;;;7.91;59.49
21203;BME280;10759;51.982;9.232;2023-03-15T10:47:23;100396.91;;;7.62;60.97
21203;BME280;10759;51.982;9.232;2023-03-15T10:49:55;100400.19;;;7.73;60.17
21203;BME280;10759;51.982;9.232;2023-03-15T10:52:26;100421.53;;;7.73;60.94
21203;BME280;10759;51.982;9.232;2023-03-15T10:54:55;100413.09;;;7.56;59.65
21203;BME280;10759;51.982;9.232;2023-03-15T10:57:33;100421.13;;;7.52;60.32
21203;BME280;10759;51.982;9.232;2023-03-15T11:00:06;100426.19;;;7.27;60.49
21203;BME280;10759;51.982;9.232;2023-03-15T11:02:50;100423.97;;;7.46;58.75
21203;BME280;10759;51.982;9.232;2023-03-15T11:05:19;100403.31;;;7.55;57.90
21203;BME280;10759;51.982;9.232;2023-03-15T11:07:54;100432.38;;;8.00;57.64
21203;BME280;10759;51.982;9.232;2023-03-15T11:10:23;100435.09;;;8.31;55.96
21203;BME280;10759;51.982;9.232;2023-03-15T11:13:10;100432.59;;;8.57;59.72
21203;BME280;10759;51.982;9.232;2023-03-15T11:15:46;100427.84;;;8.36;57.87
21203;BME280;10759;51.982;9.232;2023-03-15T11:18:18;100439.09;;;8.14;62.95
21203;BME280;10759;51.982;9.232;2023-03-15T11:20:47;100444.59;;;8.10;60.26
21203;BME280;10759;51.982;9.232;2023-03-15T11:23:19;100388.91;;;7.62;62.14
21203;BME280;10759;51.982;9.232;2023-03-15T11:25:48;100456.25;;;8.06;61.55
21203;BME280;10759;51.982;9.232;2023-03-15T11:28:19;100458.75;;;8.12;62.08
21203;BME280;10759;51.982;9.232;2023-03-15T11:30:48;100461.19;;;8.21;61.10
21203;BME280;10759;51.982;9.232;2023-03-15T11:33:32;100454.78;;;8.27;55.62
21203;BME280;10759;51.982;9.232;2023-03-15T11:36:07;100437.06;;;7.91;55.44
21203;BME280;10759;51.982;9.232;2023-03-15T11:38:40;100458.50;;;8.21;55.40
21203;BME280;10759;51.982;9.232;2023-03-15T11:41:23;100456.44;;;8.65;56.39
21203;BME280;10759;51.982;9.232;2023-03-15T11:43:59;100463.59;;;8.30;56.26
21203;BME280;10759;51.982;9.232;2023-03-15T11:46:32;100444.91;;;8.30;57.96
21203;BME280;10759;51.982;9.232;2023-03-15T11:49:11;100424.25;;;8.37;53.81
21203;BME280;10759;51.982;9.232;2023-03-15T11:51:40;100333.56;;;8.03;53.49
21203;BME280;10759;51.982;9.232;2023-03-15T11:54:12;100423.00;;;8.52;50.17
21203;BME280;10759;51.982;9.232;2023-03-15T11:56:50;100470.63;;;8.67;50.87
21203;BME280;10759;51.982;9.232;2023-03-15T11:59:23;100453.16;;;8.54;47.85
21203;BME280;10759;51.982;9.232;2023-03-15T12:01:55;100472.31;;;8.70;48.33
21203;BME280;10759;51.982;9.232;2023-03-15T12:04:49;100467.97;;;8.97;50.07
21203;BME280;10759;51.982;9.232;2023-03-15T12:07:29;100446.75;;;8.91;47.01
21203;BME280;10759;51.982;9.232;2023-03-15T12:10:19;100469.81;;;8.95;47.85
21203;BME280;10759;51.982;9.232;2023-03-15T12:12:57;100471.69;;;8.62;45.37
21203;BME280;10759;51.982;9.232;2023-03-15T12:15:46;100480.03;;;8.49;44.89
21203;BME280;10759;51.982;9.232;2023-03-15T12:18:37;100454.63;;;8.33;45.49
21203;BME280;10759;51.982;9.232;2023-03-15T12:21:10;100463.47;;;8.35;46.19
21203;BME280;10759;51.982;9.232;2023-03-15T12:23:42;100453.00;;;8.60;47.21
21203;BME280;10759;51.982;9.232;2023-03-15T12:26:23;100471.53;;;8.66;43.39
21203;BME280;10759;51.982;9.232;2023-03-15T12:29:02;100473.78;;;8.81;43.02
21203;BME280;10759;51.982;9.232;2023-03-15T12:31:50;100475.09;;;8.67;46.64
21203;BME280;10759;51.982;9.232;2023-03-15T12:34:24;100461.25;;;8.84;45.48
21203;BME280;10759;51.982;9.232;2023-03-15T12:36:59;100459.06;;;8.67;44.95
21203;BME280;10759;51.982;9.232;2023-03-15T12:39:42;100472.28;;;8.71;43.80
21203;BME280;10759;51.982;9.232;2023-03-15T12:42:12;100471.56;;;8.96;43.17
21203;BME280;10759;51.982;9.232;2023-03-15T12:44:42;100471.16;;;8.78;42.91
21203;BME280;10759;51.982;9.232;2023-03-15T12:47:11;100464.66;;;8.89;45.04
21203;BME280;10759;51.982;9.232;2023-03-15T12:49:40;100377.31;;;8.28;44.01
21203;BME280;10759;51.982;9.232;2023-03-15T12:52:24;100470.16;;;8.82;43.75
21203;BME280;10759;51.982;9.232;2023-03-15T12:54:58;100443.53;;;8.15;44.99
21203;BME280;10759;51.982;9.232;2023-03-15T12:57:29;100481.25;;;8.02;44.26
21203;BME280;10759;51.982;9.232;2023-03-15T12:59:59;100478.34;;;8.11;45.44
21203;BME280;10759;51.982;9.232;2023-03-15T13:02:32;100476.31;;;7.86;43.33
21203;BME280;10759;51.982;9.232;2023-03-15T13:05:17;100477.16;;;8.23;43.51
21203;BME280;10759;51.982;9.232;2023-03-15T13:08:03;100494.34;;;8.78;43.33
21203;BME280;10759;51.982;9.232;2023-03-15T13:10:55;100476.31;;;8.55;44.94
21203;BME280;10759;51.982;9.232;2023-03-15T13:13:55;100498.88;;;8.43;43.49
21203;BME280;10759;51.982;9.232;2023-03-15T13:16:33;100497.78;;;8.17;43.57
21203;BME280;10759;51.982;9.232;2023-03-15T13:19:13;100507.50;;;8.20;44.19
21203;BME280;10759;51.982;9.232;2023-03-15T13:21:54;100522.97;;;8.06;46.64
21203;BME280;10759;51.982;9.232;2023-03-15T13:24:32;100534.88;;;7.15;50.92
21203;BME280;10759;51.982;9.232;2023-03-15T13:27:10;100547.88;;;6.86;60.61
21203;BME280;10759;51.982;9.232;2023-03-15T13:29:40;100488.28;;;6.47;60.17
21203;BME280;10759;51.982;9.232;2023-03-15T13:32:12;100532.81;;;6.39;61.98
21203;BME280;10759;51.982;9.232;2023-03-15T13:34:42;100492.59;;;6.54;60.33
21203;BME280;10759;51.982;9.232;2023-03-15T13:37:13;100541.28;;;6.61;60.13
21203;BME280;10759;51.982;9.232;2023-03-15T13:39:54;100560.47;;;6.80;60.69